Time;durP1;ratioP1;P1;durP2;ratioP2;P2;SDS_P1;SDS_P2;PMS_P1;PMS_P2;Temp;Humidity;BMP_temperature;BMP_pressure;BME280_temperature;BME280_humidity;BME280_pressure;Samples;Min_cycle;Max_cycle;Signal;HPM_P1;HPM_P2
2021/09/04 00:00:18;;;;;;;;;;;14.50;1.00;;;;;;5105390;28;19912;-66
2021/09/04 00:02:44;;;;;;;;;;;14.40;1.00;;;;;;5105649;28;19976;-66
2021/09/04 00:05:09;;;;;;;;;;;14.40;1.00;;;;;;5107293;27;19907;-67
2021/09/04 00:07:35;;;;;;;;;;;14.40;1.00;;;;;;5099139;28;19938;-67
2021/09/04 00:10:00;;;;;;;;;;;14.40;1.00;;;;;;5086491;28;19915;-66
2021/09/04 00:12:26;;;;;;;;;;;14.30;1.00;;;;;;5086736;28;20256;-66
2021/09/04 00:14:52;;;;;;;;;;;14.30;1.00;;;;;;5090336;28;19919;-66
2021/09/04 00:17:18;;;;;;;;;;;14.30;1.00;;;;;;5088940;28;20007;-67
2021/09/04 00:19:43;;;;;;;;;;;14.30;1.00;;;;;;5089181;28;20002;-66
2021/09/04 00:22:09;;;;;;;;;;;14.30;1.00;;;;;;5088865;28;19912;-67
2021/09/04 00:24:34;;;;;;;;;;;14.20;1.00;;;;;;5087990;28;19912;-66
2021/09/04 00:27:00;;;;;;;;;;;14.20;1.00;;;;;;5090372;28;19919;-67
2021/09/04 00:29:26;;;;;;;;;;;14.10;1.00;;;;;;5089936;28;19909;-67
2021/09/04 00:31:52;;;;;;;;;;;14.10;1.00;;;;;;5089542;28;19919;-67
2021/09/04 00:34:17;;;;;;;;;;;14.00;1.00;;;;;;5089211;28;19916;-66
2021/09/04 00:36:43;;;;;;;;;;;14.00;1.00;;;;;;5090056;28;20394;-67
2021/09/04 00:39:08;;;;;;;;;;;14.00;1.00;;;;;;5087973;28;19909;-67
2021/09/04 00:41:34;;;;;;;;;;;14.00;1.00;;;;;;5090463;28;19912;-68
2021/09/04 00:44:00;;;;;;;;;;;13.90;1.00;;;;;;5088256;28;19916;-67
2021/09/04 00:46:26;;;;;;;;;;;13.90;1.00;;;;;;5089720;28;19908;-66
2021/09/04 00:48:51;;;;;;;;;;;13.80;1.00;;;;;;5088645;28;19976;-68
2021/09/04 00:51:17;;;;;;;;;;;13.80;1.00;;;;;;5087174;28;19912;-67
2021/09/04 00:53:43;;;;;;;;;;;13.80;1.00;;;;;;5087490;28;19912;-67
2021/09/04 00:56:10;;;;;;;;;;;13.70;1.00;;;;;;5088412;28;19955;-67
2021/09/04 00:58:36;;;;;;;;;;;13.70;1.00;;;;;;5088943;28;20384;-67
2021/09/04 01:01:01;;;;;;;;;;;13.70;1.00;;;;;;5085228;28;19969;-67
2021/09/04 01:03:26;;;;;;;;;;;13.60;1.00;;;;;;5067124;28;19912;-67
2021/09/04 01:05:52;;;;;;;;;;;13.60;1.00;;;;;;5068813;28;19913;-67
2021/09/04 01:08:17;;;;;;;;;;;13.60;1.00;;;;;;5080186;28;20622;-67
2021/09/04 01:10:43;;;;;;;;;;;13.50;1.00;;;;;;5088693;28;20479;-67
2021/09/04 01:13:09;;;;;;;;;;;13.50;1.00;;;;;;5088023;28;20038;-67
2021/09/04 01:15:36;;;;;;;;;;;13.50;1.00;;;;;;5089067;28;20262;-66
2021/09/04 01:18:06;;;;;;;;;;;13.40;1.00;;;;;;5088373;28;20344;-66
2021/09/04 01:20:32;;;;;;;;;;;13.40;1.00;;;;;;5089076;28;19912;-66
2021/09/04 01:22:57;;;;;;;;;;;13.40;1.00;;;;;;5087932;28;20007;-68
2021/09/04 01:25:24;;;;;;;;;;;13.40;1.00;;;;;;5109889;28;19912;-66
2021/09/04 01:27:50;;;;;;;;;;;13.30;1.00;;;;;;5112518;28;20067;-67
2021/09/04 01:30:16;;;;;;;;;;;13.20;1.00;;;;;;5112254;28;19911;-66
2021/09/04 01:32:42;;;;;;;;;;;13.20;1.00;;;;;;5111796;28;20390;-67
2021/09/04 01:35:08;;;;;;;;;;;13.20;1.00;;;;;;5112844;28;20305;-66
2021/09/04 01:37:34;;;;;;;;;;;13.20;1.00;;;;;;5112138;28;19915;-67
2021/09/04 01:39:59;;;;;;;;;;;13.10;1.00;;;;;;5111947;28;20341;-67
2021/09/04 01:42:25;;;;;;;;;;;13.10;1.00;;;;;;5111808;28;19908;-67
2021/09/04 01:44:50;;;;;;;;;;;13.00;1.00;;;;;;5112492;28;19912;-67
2021/09/04 01:47:16;;;;;;;;;;;13.00;1.00;;;;;;5112599;28;19908;-66
2021/09/04 01:49:41;;;;;;;;;;;13.00;1.00;;;;;;5112089;28;20378;-66
2021/09/04 01:52:07;;;;;;;;;;;13.00;1.00;;;;;;5111715;28;19916;-66
2021/09/04 01:54:32;;;;;;;;;;;13.00;1.00;;;;;;5110264;28;19962;-66
2021/09/04 01:57:01;;;;;;;;;;;13.00;1.00;;;;;;5112848;27;19997;-67
2021/09/04 01:59:27;;;;;;;;;;;12.90;1.00;;;;;;5111842;28;20564;-67
2021/09/04 02:01:52;;;;;;;;;;;13.00;1.00;;;;;;5111927;28;19920;-67
2021/09/04 02:04:18;;;;;;;;;;;12.90;1.00;;;;;;5111245;27;19934;-67
2021/09/04 02:06:43;;;;;;;;;;;12.90;1.00;;;;;;5112257;28;20452;-67
2021/09/04 02:09:09;;;;;;;;;;;12.90;1.00;;;;;;5110541;28;20012;-66
2021/09/04 02:11:34;;;;;;;;;;;12.80;1.00;;;;;;5112151;28;19912;-67
2021/09/04 02:14:01;;;;;;;;;;;12.80;1.00;;;;;;5110724;28;19916;-67
2021/09/04 02:16:26;;;;;;;;;;;12.80;1.00;;;;;;5112065;28;19907;-67
2021/09/04 02:18:52;;;;;;;;;;;12.70;1.00;;;;;;5111164;28;19915;-67
2021/09/04 02:21:17;;;;;;;;;;;12.70;1.00;;;;;;5111940;28;19908;-67
2021/09/04 02:23:43;;;;;;;;;;;12.70;1.00;;;;;;5110144;28;20433;-67
2021/09/04 02:26:08;;;;;;;;;;;12.70;1.00;;;;;;5111622;28;20394;-67
2021/09/04 02:28:34;;;;;;;;;;;12.70;1.00;;;;;;5110927;28;19938;-67
2021/09/04 02:30:59;;;;;;;;;;;12.70;1.00;;;;;;5111794;28;20663;-67
2021/09/04 02:33:25;;;;;;;;;;;12.60;1.00;;;;;;5110552;28;20081;-66
2021/09/04 02:35:50;;;;;;;;;;;12.60;1.00;;;;;;5110566;28;19998;-68
2021/09/04 02:38:16;;;;;;;;;;;12.60;1.00;;;;;;5110532;28;20068;-66
2021/09/04 02:40:41;;;;;;;;;;;12.50;1.00;;;;;;5110716;28;19908;-66
2021/09/04 02:43:07;;;;;;;;;;;12.50;1.00;;;;;;5110456;28;19939;-68
2021/09/04 02:45:32;;;;;;;;;;;12.50;1.00;;;;;;5111603;27;19980;-66
2021/09/04 02:47:58;;;;;;;;;;;12.50;1.00;;;;;;5110971;28;19992;-67
2021/09/04 02:50:23;;;;;;;;;;;12.40;1.00;;;;;;5111111;28;19912;-67
2021/09/04 02:52:49;;;;;;;;;;;12.40;1.00;;;;;;5109411;28;19945;-67
2021/09/04 02:55:14;;;;;;;;;;;12.40;1.00;;;;;;5110344;28;19991;-66
2021/09/04 02:57:40;;;;;;;;;;;12.40;1.00;;;;;;5110765;28;20365;-66
2021/09/04 03:00:06;;;;;;;;;;;12.40;1.00;;;;;;5110931;28;19912;-66
2021/09/04 03:02:31;;;;;;;;;;;12.40;1.00;;;;;;5109110;28;19912;-67
2021/09/04 03:04:57;;;;;;;;;;;12.40;1.00;;;;;;5110541;28;19908;-66
2021/09/04 03:07:22;;;;;;;;;;;12.40;1.00;;;;;;5110903;28;19920;-66
2021/09/04 03:09:48;;;;;;;;;;;12.30;1.00;;;;;;5109690;28;19908;-66
2021/09/04 03:12:13;;;;;;;;;;;12.30;1.00;;;;;;5109889;28;19915;-68
2021/09/04 03:14:39;;;;;;;;;;;12.30;1.00;;;;;;5110629;28;19977;-67
2021/09/04 03:17:04;;;;;;;;;;;12.30;1.00;;;;;;5110691;28;19912;-65
2021/09/04 03:19:30;;;;;;;;;;;12.30;1.00;;;;;;5109835;28;19917;-66
2021/09/04 03:21:55;;;;;;;;;;;12.30;1.00;;;;;;5110245;28;20283;-67
2021/09/04 03:24:21;;;;;;;;;;;12.30;1.00;;;;;;5109073;28;19912;-66
2021/09/04 03:26:46;;;;;;;;;;;12.30;1.00;;;;;;5110650;28;19919;-67
2021/09/04 03:29:12;;;;;;;;;;;12.30;1.00;;;;;;5109800;28;20317;-68
2021/09/04 03:31:37;;;;;;;;;;;12.30;1.00;;;;;;5110557;28;19908;-66
2021/09/04 03:34:03;;;;;;;;;;;12.20;1.00;;;;;;5109273;28;19934;-67
2021/09/04 03:36:28;;;;;;;;;;;12.20;1.00;;;;;;5110723;28;20002;-67
2021/09/04 03:38:54;;;;;;;;;;;12.20;1.00;;;;;;5109150;28;19980;-66
2021/09/04 03:41:19;;;;;;;;;;;12.20;1.00;;;;;;5109422;27;19907;-66
2021/09/04 03:43:45;;;;;;;;;;;12.20;1.00;;;;;;5109302;28;20321;-65
2021/09/04 03:46:10;;;;;;;;;;;12.10;1.00;;;;;;5109907;28;19911;-67
2021/09/04 03:48:36;;;;;;;;;;;12.20;1.00;;;;;;5109451;28;19915;-67
2021/09/04 03:51:01;;;;;;;;;;;12.10;1.00;;;;;;5109821;28;19912;-67
2021/09/04 03:53:27;;;;;;;;;;;12.10;1.00;;;;;;5108340;28;20410;-68
2021/09/04 03:55:52;;;;;;;;;;;12.10;1.00;;;;;;5109469;28;19908;-68
2021/09/04 03:58:18;;;;;;;;;;;12.10;1.00;;;;;;5109883;28;19912;-65
2021/09/04 04:00:43;;;;;;;;;;;12.00;1.00;;;;;;5110060;28;19915;-66
2021/09/04 04:03:09;;;;;;;;;;;12.00;1.00;;;;;;5108346;28;19977;-65
2021/09/04 04:05:34;;;;;;;;;;;12.00;1.00;;;;;;5109719;28;19934;-65
2021/09/04 04:07:59;;;;;;;;;;;11.90;1.00;;;;;;5098240;28;19927;-66
2021/09/04 04:10:25;;;;;;;;;;;11.80;1.00;;;;;;5088936;28;20293;-65
2021/09/04 04:12:50;;;;;;;;;;;11.80;1.00;;;;;;5088464;28;20014;-64
2021/09/04 04:15:16;;;;;;;;;;;11.80;1.00;;;;;;5089020;28;19908;-65
2021/09/04 04:17:41;;;;;;;;;;;11.80;1.00;;;;;;5087107;28;19968;-65
2021/09/04 04:20:07;;;;;;;;;;;11.80;1.00;;;;;;5081179;28;19998;-65
2021/09/04 04:22:33;;;;;;;;;;;11.70;1.00;;;;;;5069746;28;19913;-64
2021/09/04 04:24:58;;;;;;;;;;;11.70;1.00;;;;;;5082368;28;19916;-65
2021/09/04 04:27:24;;;;;;;;;;;11.70;1.00;;;;;;5070717;28;20023;-65
2021/09/04 04:29:49;;;;;;;;;;;11.60;1.00;;;;;;5088771;28;19912;-66
2021/09/04 04:32:15;;;;;;;;;;;11.60;1.00;;;;;;5083238;28;19913;-65
2021/09/04 04:34:40;;;;;;;;;;;11.60;1.00;;;;;;5079695;28;20372;-65
2021/09/04 04:37:06;;;;;;;;;;;11.60;1.00;;;;;;5084774;28;19974;-67
2021/09/04 04:39:31;;;;;;;;;;;11.60;1.00;;;;;;5087216;28;19908;-68
2021/09/04 04:41:57;;;;;;;;;;;11.60;1.00;;;;;;5075322;28;19913;-67
2021/09/04 04:44:22;;;;;;;;;;;11.60;1.00;;;;;;5068458;28;19926;-66
2021/09/04 04:46:48;;;;;;;;;;;11.60;1.00;;;;;;5069783;28;19919;-66
2021/09/04 04:49:13;;;;;;;;;;;11.60;1.00;;;;;;5068035;28;20395;-65
2021/09/04 04:51:39;;;;;;;;;;;11.60;1.00;;;;;;5081383;28;20011;-67
2021/09/04 04:54:05;;;;;;;;;;;11.60;1.00;;;;;;5086013;28;20293;-66
2021/09/04 04:56:30;;;;;;;;;;;11.60;1.00;;;;;;5088968;28;19912;-67
2021/09/04 04:58:56;;;;;;;;;;;11.70;1.00;;;;;;5090257;28;19908;-66
2021/09/04 05:01:21;;;;;;;;;;;11.80;1.00;;;;;;5093274;28;20039;-66
2021/09/04 05:03:47;;;;;;;;;;;11.90;1.00;;;;;;5091779;28;20003;-66
2021/09/04 05:06:12;;;;;;;;;;;11.90;1.00;;;;;;5093565;28;20378;-68
2021/09/04 05:08:38;;;;;;;;;;;11.90;1.00;;;;;;5108584;28;19916;-66
2021/09/04 05:11:03;;;;;;;;;;;12.00;1.00;;;;;;5112995;28;19919;-66
2021/09/04 05:13:29;;;;;;;;;;;12.00;1.00;;;;;;5113002;28;19912;-67
2021/09/04 05:15:54;;;;;;;;;;;12.10;1.00;;;;;;5112914;28;20002;-65
2021/09/04 05:18:20;;;;;;;;;;;12.10;1.00;;;;;;5112576;28;19991;-67
2021/09/04 05:20:46;;;;;;;;;;;12.20;1.00;;;;;;5110320;28;19953;-67
2021/09/04 05:23:12;;;;;;;;;;;12.30;1.00;;;;;;5109953;28;20330;-68
2021/09/04 05:25:38;;;;;;;;;;;12.40;1.00;;;;;;5111798;28;19907;-66
2021/09/04 05:28:04;;;;;;;;;;;12.50;1.00;;;;;;5111892;28;19976;-66
2021/09/04 05:30:29;;;;;;;;;;;12.60;1.00;;;;;;5110461;28;20020;-67
2021/09/04 05:32:55;;;;;;;;;;;12.70;1.00;;;;;;5109844;28;20034;-66
2021/09/04 05:35:20;;;;;;;;;;;13.30;1.00;;;;;;5111971;28;20045;-66
2021/09/04 05:37:47;;;;;;;;;;;14.50;99.90;;;;;;5110588;28;19912;-66
2021/09/04 05:40:12;;;;;;;;;;;15.80;1.00;;;;;;5111535;28;19972;-67
2021/09/04 05:42:38;;;;;;;;;;;17.00;99.90;;;;;;5111956;28;20341;-67
2021/09/04 05:45:04;;;;;;;;;;;18.20;1.00;;;;;;5101962;28;19916;-66
2021/09/04 05:47:30;;;;;;;;;;;19.30;1.00;;;;;;5108607;28;19995;-68
2021/09/04 05:49:55;;;;;;;;;;;20.30;1.00;;;;;;5110764;28;19990;-68
2021/09/04 05:52:21;;;;;;;;;;;21.00;99.90;;;;;;5105034;28;20362;-67
2021/09/04 05:54:46;;;;;;;;;;;21.80;99.90;;;;;;5111313;28;20214;-68
2021/09/04 05:57:12;;;;;;;;;;;22.50;99.90;;;;;;5113055;28;19912;-68
2021/09/04 05:59:37;;;;;;;;;;;23.00;99.90;;;;;;5112333;28;19915;-67
2021/09/04 06:02:03;;;;;;;;;;;23.70;99.90;;;;;;5111637;28;19915;-68
2021/09/04 06:04:28;;;;;;;;;;;24.40;99.90;;;;;;5111602;28;19919;-67
2021/09/04 06:06:54;;;;;;;;;;;25.10;99.90;;;;;;5110959;28;19970;-69
2021/09/04 06:09:22;;;;;;;;;;;25.30;99.90;;;;;;5090324;28;19926;-67
2021/09/04 06:11:48;;;;;;;;;;;25.90;99.90;;;;;;5091942;28;19992;-68
2021/09/04 06:14:13;;;;;;;;;;;26.10;99.90;;;;;;5091566;28;20556;-68
2021/09/04 06:16:39;;;;;;;;;;;26.60;99.90;;;;;;5091753;28;19969;-68
2021/09/04 06:19:04;;;;;;;;;;;27.20;99.90;;;;;;5091323;28;19922;-68
2021/09/04 06:21:30;;;;;;;;;;;27.70;99.90;;;;;;5092137;28;19908;-66
2021/09/04 06:23:55;;;;;;;;;;;28.20;99.90;;;;;;5089934;28;19912;-68
2021/09/04 06:26:20;;;;;;;;;;;28.50;99.90;;;;;;5091503;28;20007;-66
2021/09/04 06:28:46;;;;;;;;;;;28.80;99.90;;;;;;5091977;28;19915;-65
2021/09/04 06:31:11;;;;;;;;;;;29.10;99.90;;;;;;5091539;28;19908;-67
2021/09/04 06:33:37;;;;;;;;;;;29.40;99.90;;;;;;5090337;28;19919;-68
2021/09/04 06:36:03;;;;;;;;;;;29.40;99.90;;;;;;5091561;28;19909;-67
2021/09/04 06:38:28;;;;;;;;;;;29.90;99.90;;;;;;5089783;28;19991;-66
2021/09/04 06:40:53;;;;;;;;;;;30.30;99.90;;;;;;5091257;28;19919;-67
2021/09/04 06:43:19;;;;;;;;;;;30.60;99.90;;;;;;5090503;28;20031;-69
2021/09/04 06:45:44;;;;;;;;;;;31.00;99.90;;;;;;5091098;28;19908;-67
2021/09/04 06:48:10;;;;;;;;;;;31.60;99.90;;;;;;5090560;28;19912;-67
2021/09/04 06:50:35;;;;;;;;;;;32.30;99.90;;;;;;5091250;28;19952;-68
2021/09/04 06:53:02;;;;;;;;;;;32.70;99.90;;;;;;5090358;28;19931;-69
2021/09/04 06:55:28;;;;;;;;;;;33.10;99.90;;;;;;5090456;28;19947;-67
2021/09/04 06:57:53;;;;;;;;;;;33.50;99.90;;;;;;5091048;28;19951;-67
2021/09/04 07:00:19;;;;;;;;;;;34.50;99.90;;;;;;5072426;28;19912;-67
2021/09/04 07:02:44;;;;;;;;;;;35.20;99.90;;;;;;5089524;28;19912;-65
2021/09/04 07:05:10;;;;;;;;;;;36.00;99.90;;;;;;5091229;28;19915;-66
2021/09/04 07:07:35;;;;;;;;;;;36.70;99.90;;;;;;5089988;28;20029;-70
2021/09/04 07:10:01;;;;;;;;;;;36.60;99.90;;;;;;5086603;28;19984;-66
2021/09/04 07:12:26;;;;;;;;;;;37.30;99.90;;;;;;5080661;28;19916;-66
2021/09/04 07:14:52;;;;;;;;;;;37.80;99.90;;;;;;5080142;28;19919;-66
2021/09/04 07:17:17;;;;;;;;;;;38.70;96.60;;;;;;5079097;28;19912;-66
2021/09/04 07:19:44;;;;;;;;;;;39.40;92.70;;;;;;5077992;28;20164;-66
2021/09/04 07:22:09;;;;;;;;;;;40.00;86.30;;;;;;5079346;28;20639;-66
2021/09/04 07:24:35;;;;;;;;;;;40.40;76.70;;;;;;5080812;28;19916;-67
2021/09/04 07:27:00;;;;;;;;;;;41.40;68.40;;;;;;5079889;28;19962;-66
2021/09/04 07:29:26;;;;;;;;;;;42.10;59.20;;;;;;5079215;28;19973;-65
2021/09/04 07:31:52;;;;;;;;;;;42.60;52.90;;;;;;5078082;28;20330;-66
2021/09/04 07:34:17;;;;;;;;;;;42.90;45.60;;;;;;5078023;28;20004;-66
2021/09/04 07:36:43;;;;;;;;;;;42.50;39.40;;;;;;5059738;28;19919;-66
2021/09/04 07:39:08;;;;;;;;;;;42.50;33.20;;;;;;5079150;28;19912;-66
2021/09/04 07:41:34;;;;;;;;;;;42.60;28.40;;;;;;5079731;28;20319;-67
2021/09/04 07:43:59;;;;;;;;;;;43.10;25.00;;;;;;5078621;28;20380;-66
2021/09/04 07:46:25;;;;;;;;;;;43.70;21.20;;;;;;5077989;28;20415;-66
2021/09/04 07:48:50;;;;;;;;;;;44.80;18.00;;;;;;5080276;28;20038;-66
2021/09/04 07:51:16;;;;;;;;;;;45.70;14.70;;;;;;5082899;28;19918;-66
2021/09/04 07:53:41;;;;;;;;;;;45.70;10.50;;;;;;5088479;28;19916;-66
2021/09/04 07:56:07;;;;;;;;;;;45.00;6.40;;;;;;5088661;28;19908;-66
2021/09/04 07:58:32;;;;;;;;;;;45.50;3.20;;;;;;5087570;28;19912;-66
2021/09/04 08:00:58;;;;;;;;;;;45.80;1.00;;;;;;5088294;28;20405;-67
2021/09/04 08:03:24;;;;;;;;;;;46.40;1.00;;;;;;5086950;28;19912;-67
2021/09/04 08:05:49;;;;;;;;;;;47.20;1.00;;;;;;5088611;28;19908;-66
2021/09/04 08:08:15;;;;;;;;;;;47.80;1.00;;;;;;5100774;28;19916;-66
2021/09/04 08:10:43;;;;;;;;;;;47.50;1.00;;;;;;5108494;28;19911;-66
2021/09/04 08:13:09;;;;;;;;;;;47.00;1.00;;;;;;5108959;28;19919;-66
2021/09/04 08:15:34;;;;;;;;;;;47.40;1.00;;;;;;5110102;28;19907;-66
2021/09/04 08:18:00;;;;;;;;;;;47.80;1.00;;;;;;5109794;28;19908;-66
2021/09/04 08:20:25;;;;;;;;;;;49.00;1.00;;;;;;5109979;28;19907;-66
2021/09/04 08:22:51;;;;;;;;;;;49.40;1.00;;;;;;5108811;28;19935;-66
2021/09/04 08:25:16;;;;;;;;;;;49.40;1.00;;;;;;5109442;28;19979;-66
2021/09/04 08:27:41;;;;;;;;;;;49.30;1.00;;;;;;5109848;28;19908;-66
2021/09/04 08:30:07;;;;;;;;;;;49.00;1.00;;;;;;5107838;28;19915;-66
2021/09/04 08:32:33;;;;;;;;;;;48.90;1.00;;;;;;5108273;28;20308;-65
2021/09/04 08:34:58;;;;;;;;;;;48.50;1.00;;;;;;5109500;28;19935;-65
2021/09/04 08:37:24;;;;;;;;;;;48.30;1.00;;;;;;5109807;28;20329;-67
2021/09/04 08:39:49;;;;;;;;;;;48.30;1.00;;;;;;5108857;28;20292;-64
2021/09/04 08:42:15;;;;;;;;;;;48.60;1.00;;;;;;5109358;28;19912;-65
2021/09/04 08:44:40;;;;;;;;;;;48.90;1.00;;;;;;5109350;28;19912;-65
2021/09/04 08:47:06;;;;;;;;;;;49.80;1.00;;;;;;5109164;28;19908;-65
2021/09/04 08:49:33;;;;;;;;;;;49.70;1.00;;;;;;5109046;28;20413;-64
2021/09/04 08:51:58;;;;;;;;;;;49.30;1.00;;;;;;5109693;28;19915;-65
2021/09/04 08:54:24;;;;;;;;;;;48.20;1.00;;;;;;5108994;28;19924;-64
2021/09/04 08:56:49;;;;;;;;;;;47.60;1.00;;;;;;5111332;28;20333;-64
2021/09/04 08:59:15;;;;;;;;;;;47.90;1.00;;;;;;5110464;28;19918;-65
2021/09/04 09:01:44;;;;;;;;;;;48.20;1.00;;;;;;5110332;28;19908;-65
2021/09/04 09:04:12;;;;;;;;;;;48.90;1.00;;;;;;5109251;28;20389;-65
2021/09/04 09:06:38;;;;;;;;;;;48.50;1.00;;;;;;5110145;28;19915;-65
2021/09/04 09:09:13;;;;;;;;;;;48.80;1.00;;;;;;5108528;28;19919;-66
2021/09/04 09:11:39;;;;;;;;;;;49.70;1.00;;;;;;5109704;28;19908;-65
2021/09/04 09:14:04;;;;;;;;;;;50.00;1.00;;;;;;5108577;28;19911;-65
2021/09/04 09:16:30;;;;;;;;;;;49.50;1.00;;;;;;5109616;28;19908;-64
2021/09/04 09:18:56;;;;;;;;;;;48.80;1.00;;;;;;5108668;28;19908;-65
2021/09/04 09:21:23;;;;;;;;;;;48.20;1.00;;;;;;5109178;28;19976;-65
2021/09/04 09:24:07;;;;;;;;;;;49.00;1.00;;;;;;5108243;28;20344;-65
2021/09/04 09:26:33;;;;;;;;;;;49.60;1.00;;;;;;5109835;28;19975;-64
2021/09/04 09:29:17;;;;;;;;;;;49.20;1.00;;;;;;5109289;28;20076;-65
2021/09/04 09:31:43;;;;;;;;;;;48.10;1.00;;;;;;5109813;28;19990;-65
2021/09/04 09:34:09;;;;;;;;;;;47.00;1.00;;;;;;5108664;28;19912;-66
2021/09/04 09:36:47;;;;;;;;;;;45.50;1.00;;;;;;5109916;28;19947;-66
2021/09/04 09:39:13;;;;;;;;;;;45.80;1.00;;;;;;5108068;28;20069;-65
2021/09/04 09:41:45;;;;;;;;;;;45.70;1.00;;;;;;5109354;28;20007;-66
2021/09/04 09:44:21;;;;;;;;;;;45.00;1.00;;;;;;5108634;28;19912;-65
2021/09/04 09:46:51;;;;;;;;;;;44.10;1.00;;;;;;5113237;28;19960;-65
2021/09/04 09:49:17;;;;;;;;;;;43.80;1.00;;;;;;5112353;28;19915;-66
2021/09/04 09:51:43;;;;;;;;;;;43.20;1.00;;;;;;5112836;28;19908;-66
2021/09/04 09:54:09;;;;;;;;;;;42.00;1.00;;;;;;5111296;28;19934;-65
2021/09/04 09:56:35;;;;;;;;;;;42.00;1.00;;;;;;5112759;27;19961;-65
2021/09/04 09:59:01;;;;;;;;;;;42.10;1.00;;;;;;5112469;28;19908;-66
2021/09/04 10:01:27;;;;;;;;;;;42.00;1.00;;;;;;5113157;28;19994;-65
2021/09/04 10:03:54;;;;;;;;;;;41.30;1.00;;;;;;5113258;28;20228;-66
2021/09/04 10:06:20;;;;;;;;;;;40.60;1.00;;;;;;5114366;28;20442;-66
2021/09/04 10:08:45;;;;;;;;;;;40.90;1.00;;;;;;5098324;28;19930;-66
2021/09/04 10:11:11;;;;;;;;;;;41.20;1.00;;;;;;5091849;28;20532;-66
2021/09/04 10:13:36;;;;;;;;;;;40.90;1.00;;;;;;5090994;28;19957;-66
2021/09/04 10:16:03;;;;;;;;;;;40.70;1.00;;;;;;5092380;28;19912;-66
2021/09/04 10:18:28;;;;;;;;;;;41.00;1.00;;;;;;5091536;28;19916;-65
2021/09/04 10:21:07;;;;;;;;;;;40.20;1.00;;;;;;5092188;28;19923;-66
2021/09/04 10:23:33;;;;;;;;;;;39.90;1.00;;;;;;5090285;28;19965;-66
2021/09/04 10:26:31;;;;;;;;;;;39.90;1.00;;;;;;5091362;28;19912;-66
2021/09/04 10:29:08;;;;;;;;;;;40.40;1.00;;;;;;5026849;28;20441;-66
2021/09/04 10:31:52;;;;;;;;;;;40.40;1.00;;;;;;5071345;28;20003;-66
2021/09/04 10:34:23;;;;;;;;;;;39.90;1.00;;;;;;5070629;28;20341;-66
2021/09/04 10:37:12;;;;;;;;;;;39.90;1.00;;;;;;5075673;28;19965;-67
2021/09/04 10:39:48;;;;;;;;;;;40.10;1.00;;;;;;5061319;28;19909;-66
2021/09/04 10:42:17;;;;;;;;;;;39.80;1.00;;;;;;5070453;28;19954;-66
2021/09/04 10:44:44;;;;;;;;;;;39.30;1.00;;;;;;5071308;28;19935;-66
2021/09/04 10:47:10;;;;;;;;;;;38.50;1.00;;;;;;5068376;28;19908;-66
2021/09/04 10:49:40;;;;;;;;;;;38.20;1.00;;;;;;5068337;28;20293;-66
2021/09/04 10:52:06;;;;;;;;;;;39.10;1.00;;;;;;5087278;28;19944;-64
2021/09/04 10:54:39;;;;;;;;;;;39.80;1.00;;;;;;5087111;28;20434;-65
2021/09/04 10:57:14;;;;;;;;;;;40.00;1.00;;;;;;5068841;28;19916;-66
2021/09/04 10:59:59;;;;;;;;;;;38.20;1.00;;;;;;5087863;28;19918;-66
2021/09/04 11:02:44;;;;;;;;;;;37.20;1.00;;;;;;5087105;28;20407;-65
2021/09/04 11:05:29;;;;;;;;;;;37.30;1.00;;;;;;5087221;28;20395;-66
2021/09/04 11:08:01;;;;;;;;;;;37.70;1.00;;;;;;5093148;28;20260;-67
2021/09/04 11:10:27;;;;;;;;;;;38.60;1.00;;;;;;5106063;28;19908;-66
2021/09/04 11:13:06;;;;;;;;;;;38.20;1.00;;;;;;5107812;28;19935;-66
2021/09/04 11:15:32;;;;;;;;;;;37.20;1.00;;;;;;5108072;28;19976;-66
2021/09/04 11:17:57;;;;;;;;;;;37.10;1.00;;;;;;5107565;28;19998;-66
2021/09/04 11:20:23;;;;;;;;;;;37.60;1.00;;;;;;5108119;28;19911;-67
2021/09/04 11:22:49;;;;;;;;;;;38.20;1.00;;;;;;5107386;28;19918;-67
2021/09/04 11:25:15;;;;;;;;;;;38.10;1.00;;;;;;5107388;28;19908;-67
2021/09/04 11:27:44;;;;;;;;;;;37.50;1.00;;;;;;5107799;28;19931;-67
2021/09/04 11:30:09;;;;;;;;;;;37.10;1.00;;;;;;5106991;28;19908;-66
2021/09/04 11:32:35;;;;;;;;;;;37.30;1.00;;;;;;5106144;28;20265;-66
2021/09/04 11:35:02;;;;;;;;;;;37.70;1.00;;;;;;5107924;27;19923;-66
2021/09/04 11:37:37;;;;;;;;;;;37.70;1.00;;;;;;5107313;28;19912;-65
2021/09/04 11:40:05;;;;;;;;;;;37.90;1.00;;;;;;5106195;28;19972;-66
2021/09/04 11:42:32;;;;;;;;;;;37.80;1.00;;;;;;5107214;28;19908;-65
2021/09/04 11:44:57;;;;;;;;;;;37.30;1.00;;;;;;5107191;28;19984;-65
2021/09/04 11:47:23;;;;;;;;;;;35.90;1.00;;;;;;5107319;28;19923;-67
2021/09/04 11:49:50;;;;;;;;;;;34.80;1.00;;;;;;5107283;28;20268;-66
2021/09/04 11:52:17;;;;;;;;;;;34.00;1.00;;;;;;5106851;28;19961;-66
2021/09/04 11:54:42;;;;;;;;;;;33.90;1.00;;;;;;5106000;28;19916;-66
2021/09/04 11:57:28;;;;;;;;;;;32.90;1.00;;;;;;5107081;28;20370;-66
2021/09/04 11:59:59;;;;;;;;;;;32.60;1.00;;;;;;5107369;28;20391;-65
2021/09/04 12:02:25;;;;;;;;;;;33.10;1.00;;;;;;5105931;28;19970;-66
2021/09/04 12:04:51;;;;;;;;;;;33.70;1.00;;;;;;5107268;28;20375;-65
2021/09/04 12:07:16;;;;;;;;;;;32.80;1.00;;;;;;5106934;28;19961;-65
2021/09/04 12:09:43;;;;;;;;;;;32.00;1.00;;;;;;5105484;28;19912;-65
2021/09/04 12:12:08;;;;;;;;;;;32.50;1.00;;;;;;5106328;27;19912;-66
2021/09/04 12:14:34;;;;;;;;;;;32.50;1.00;;;;;;5106233;28;19957;-66
2021/09/04 12:17:00;;;;;;;;;;;32.70;1.00;;;;;;5107417;28;20433;-65
2021/09/04 12:19:26;;;;;;;;;;;33.00;1.00;;;;;;5106452;28;19907;-65
2021/09/04 12:21:52;;;;;;;;;;;33.00;1.00;;;;;;5106282;28;19956;-66
2021/09/04 12:24:17;;;;;;;;;;;32.50;1.00;;;;;;5105032;28;19916;-66
2021/09/04 12:26:52;;;;;;;;;;;31.90;1.00;;;;;;5104904;28;20743;-66
2021/09/04 12:29:17;;;;;;;;;;;30.70;1.00;;;;;;5106418;28;19930;-65
2021/09/04 12:31:46;;;;;;;;;;;30.40;1.00;;;;;;5106775;28;19915;-65
2021/09/04 12:34:19;;;;;;;;;;;30.60;1.00;;;;;;5105758;28;19923;-65
2021/09/04 12:36:44;;;;;;;;;;;30.40;1.00;;;;;;5106187;28;20360;-66
2021/09/04 12:39:18;;;;;;;;;;;30.40;1.00;;;;;;5104460;28;19912;-65
2021/09/04 12:41:44;;;;;;;;;;;30.50;1.00;;;;;;5106548;28;19911;-65
2021/09/04 12:44:10;;;;;;;;;;;30.60;1.00;;;;;;5105872;28;20124;-65
2021/09/04 12:47:02;;;;;;;;;;;30.30;1.00;;;;;;5106110;28;20060;-66
2021/09/04 12:49:29;;;;;;;;;;;29.20;1.00;;;;;;5103070;28;19911;-64
2021/09/04 12:52:13;;;;;;;;;;;28.80;1.10;;;;;;5106133;28;20338;-65
2021/09/04 12:54:43;;;;;;;;;;;28.40;2.10;;;;;;5102944;28;20386;-65
2021/09/04 12:57:15;;;;;;;;;;;28.50;3.90;;;;;;5106460;28;19960;-65
2021/09/04 12:59:47;;;;;;;;;;;28.90;5.50;;;;;;5105889;28;19996;-65
2021/09/04 13:02:14;;;;;;;;;;;29.40;7.50;;;;;;5105561;28;19918;-64
2021/09/04 13:04:40;;;;;;;;;;;29.80;8.30;;;;;;5105983;28;19908;-66
2021/09/04 13:07:05;;;;;;;;;;;29.70;8.80;;;;;;5105982;28;19912;-65
2021/09/04 13:09:31;;;;;;;;;;;29.80;9.70;;;;;;5084745;28;19920;-65
2021/09/04 13:11:56;;;;;;;;;;;29.20;8.50;;;;;;5094891;22;19924;-67
2021/09/04 13:14:21;;;;;;;;;;;28.30;7.20;;;;;;5067409;28;20019;-67
2021/09/04 13:16:47;;;;;;;;;;;27.70;8.80;;;;;;5068905;28;19912;-67
2021/09/04 13:19:12;;;;;;;;;;;27.00;8.50;;;;;;5068244;28;20265;-67
2021/09/04 13:21:38;;;;;;;;;;;26.50;8.50;;;;;;5072754;28;19960;-68
2021/09/04 13:24:04;;;;;;;;;;;26.30;10.00;;;;;;5071009;28;19995;-67
2021/09/04 13:26:30;;;;;;;;;;;26.30;11.70;;;;;;5072419;28;19908;-68
2021/09/04 13:28:55;;;;;;;;;;;26.30;13.00;;;;;;5072488;28;19917;-68
2021/09/04 13:31:21;;;;;;;;;;;26.30;14.80;;;;;;5072576;28;19970;-67
2021/09/04 13:33:46;;;;;;;;;;;26.20;15.70;;;;;;5071239;28;19919;-68
2021/09/04 13:36:12;;;;;;;;;;;26.20;16.60;;;;;;5072498;28;19908;-67
2021/09/04 13:38:38;;;;;;;;;;;26.10;17.30;;;;;;5076448;28;19908;-68
2021/09/04 13:41:03;;;;;;;;;;;26.20;18.20;;;;;;5071577;28;19931;-67
2021/09/04 13:43:29;;;;;;;;;;;26.10;17.60;;;;;;5071232;28;19909;-67
2021/09/04 13:45:54;;;;;;;;;;;25.60;16.20;;;;;;5072210;28;19960;-67
2021/09/04 13:48:20;;;;;;;;;;;25.30;16.10;;;;;;5071569;28;20378;-67
2021/09/04 13:50:45;;;;;;;;;;;25.10;15.60;;;;;;5071935;28;19965;-68
2021/09/04 13:53:11;;;;;;;;;;;24.90;16.70;;;;;;5070338;28;19918;-67
2021/09/04 13:55:36;;;;;;;;;;;24.70;17.40;;;;;;5071889;28;19908;-67
2021/09/04 13:58:02;;;;;;;;;;;24.60;18.20;;;;;;5071945;28;20365;-68
2021/09/04 14:00:27;;;;;;;;;;;24.40;17.90;;;;;;5071968;28;19918;-67
2021/09/04 14:02:53;;;;;;;;;;;24.30;18.10;;;;;;5070940;28;19913;-68
2021/09/04 14:05:19;;;;;;;;;;;24.50;19.30;;;;;;5071523;28;20353;-67
2021/09/04 14:07:44;;;;;;;;;;;24.70;21.00;;;;;;5071237;28;20366;-68
2021/09/04 14:10:10;;;;;;;;;;;24.70;21.30;;;;;;5071096;28;19916;-68
2021/09/04 14:12:35;;;;;;;;;;;24.70;21.70;;;;;;5088556;28;19924;-67
2021/09/04 14:15:00;;;;;;;;;;;24.70;22.00;;;;;;5091975;28;19912;-68
2021/09/04 14:17:26;;;;;;;;;;;24.70;22.30;;;;;;5091422;28;19955;-68
2021/09/04 14:19:51;;;;;;;;;;;24.70;22.50;;;;;;5091751;28;19912;-68
2021/09/04 14:22:17;;;;;;;;;;;24.40;21.70;;;;;;5091333;28;19973;-68